Time;durP1;ratioP1;P1;durP2;ratioP2;P2;SDS_P1;SDS_P2;PMS_P1;PMS_P2;Temp;Humidity;BMP_temperature;BMP_pressure;BME280_temperature;BME280_humidity;BME280_pressure;Samples;Min_cycle;Max_cycle;Signal;HPM_P1;HPM_P2
2022/01/14 00:00:59;;;;;;;;;45.00;40.00;;;;;4.67;70.49;103171.84;5044320;28;45437;-70
2022/01/14 00:03:25;;;;;;;;;54.50;43.00;;;;;4.67;70.74;103173.59;5037317;28;46893;-68
2022/01/14 00:05:50;;;;;;;;;49.50;41.50;;;;;4.65;71.28;103170.06;5054625;28;45367;-64
2022/01/14 00:08:15;;;;;;;;;34.25;27.00;;;;;4.52;71.22;103171.69;5055439;28;45731;-73
2022/01/14 00:10:47;;;;;;;;;42.00;37.50;;;;;4.41;71.08;103163.66;5054899;28;45497;-73
2022/01/14 00:13:37;;;;;;;;;42.00;37.75;;;;;4.33;71.76;103169.75;5056386;28;46190;-65
2022/01/14 00:15:58;;;;;;;;;40.50;37.25;;;;;4.32;71.66;103162.72;5056208;28;45395;-71
2022/01/14 00:18:24;;;;;;;;;46.00;37.75;;;;;4.26;71.79;103158.25;5057088;28;45779;-71
2022/01/14 00:20:49;;;;;;;;;48.25;37.25;;;;;4.26;71.97;103158.25;5021066;28;45644;-69
2022/01/14 00:23:16;;;;;;;;;35.75;32.50;;;;;4.28;71.36;103155.63;5051733;28;45306;-67
2022/01/14 00:33:53;;;;;;;;;41.00;37.25;;;;;4.22;71.90;103166.09;5052533;28;45850;-71
2022/01/14 00:36:19;;;;;;;;;35.50;31.00;;;;;4.19;71.69;103168.72;5055514;28;45339;-65
2022/01/14 00:38:44;;;;;;;;;37.50;33.50;;;;;4.23;71.77;103162.59;5059014;28;45544;-65
2022/01/14 00:41:11;;;;;;;;;39.00;37.25;;;;;4.30;71.73;103172.34;5056775;28;45652;-64
2022/01/14 00:43:38;;;;;;;;;47.25;35.25;;;;;3.95;71.80;103104.34;5040312;28;47191;-64
2022/01/14 00:46:04;;;;;;;;;53.75;42.25;;;;;4.32;71.70;103152.19;5027962;28;45602;-65
2022/01/14 00:48:29;;;;;;;;;55.00;40.75;;;;;4.37;71.88;103155.72;5050263;28;45316;-69
2022/01/14 00:50:54;;;;;;;;;33.50;31.75;;;;;4.31;71.66;103140.75;5058388;28;45757;-67
2022/01/14 00:53:20;;;;;;;;;55.25;37.75;;;;;4.40;71.95;103155.75;5058185;28;46255;-72
2022/01/14 00:55:52;;;;;;;;;43.75;38.50;;;;;4.40;71.39;103145.22;5029258;28;45546;-64
2022/01/14 01:01:03;;;;;;;;;45.25;40.75;;;;;4.40;71.85;103145.22;5050000;28;45578;-67
2022/01/14 01:03:29;;;;;;;;;43.00;34.25;;;;;4.40;71.41;103150.47;5039743;28;47556;-65
2022/01/14 01:05:55;;;;;;;;;44.75;40.25;;;;;4.43;71.32;103150.53;5057483;28;45297;-67
2022/01/14 01:08:24;;;;;;;;;47.00;39.75;;;;;4.42;71.79;103148.75;5053738;28;45501;-70
2022/01/14 01:10:50;;;;;;;;;42.25;35.75;;;;;4.43;71.33;103135.63;5037471;28;45431;-70
2022/01/14 01:13:31;;;;;;;;;48.75;40.75;;;;;4.44;71.55;103137.38;5045772;28;45616;-70
2022/01/14 01:15:56;;;;;;;;;42.25;40.25;;;;;4.50;71.02;103148.84;5039085;28;45681;-68
2022/01/14 01:18:23;;;;;;;;;40.00;30.00;;;;;4.45;71.22;103146.16;5057832;28;45406;-72
2022/01/14 01:20:49;;;;;;;;;43.00;38.75;;;;;4.44;71.46;103152.31;5043301;28;45450;-69
2022/01/14 01:23:14;;;;;;;;;42.75;40.75;;;;;4.40;70.94;103150.47;5057236;28;45459;-71
2022/01/14 01:25:45;;;;;;;;;35.50;26.50;;;;;4.36;70.96;103140.78;5056892;28;45430;-69
2022/01/14 01:28:11;;;;;;;;;42.00;37.50;;;;;4.43;71.24;103154.06;5054620;28;45501;-72
2022/01/14 01:30:50;;;;;;;;;38.50;35.00;;;;;4.46;70.71;103139.16;5057633;28;45438;-64
2022/01/14 01:33:16;;;;;;;;;38.50;36.50;;;;;4.55;70.74;103145.38;5056881;28;46226;-68
2022/01/14 01:35:42;;;;;;;;;42.75;39.50;;;;;4.58;70.59;103145.41;5057173;28;45383;-67
2022/01/14 01:38:09;;;;;;;;;37.50;35.75;;;;;4.59;70.36;103141.91;5057938;28;45244;-69
2022/01/14 01:40:35;;;;;;;;;41.75;37.75;;;;;4.61;70.85;103140.16;5031524;28;45754;-66
2022/01/14 01:43:03;;;;;;;;;37.25;35.75;;;;;4.62;70.42;103147.19;5057576;28;45364;-70
2022/01/14 01:45:29;;;;;;;;;43.00;35.75;;;;;4.63;70.73;103137.53;5058073;28;45494;-70
2022/01/14 01:47:54;;;;;;;;;31.75;31.50;;;;;4.65;70.01;103144.59;5058120;28;45426;-67
2022/01/14 01:50:25;;;;;;;;;48.75;37.25;;;;;4.71;70.67;103152.56;5056298;28;45620;-68
2022/01/14 01:52:51;;;;;;;;;42.00;39.50;;;;;4.71;70.43;103152.56;5053431;28;46114;-69
2022/01/14 01:55:17;;;;;;;;;39.50;37.00;;;;;4.72;70.00;103150.81;5032614;28;45299;-66
2022/01/14 01:57:44;;;;;;;;;35.00;34.25;;;;;4.76;70.36;103155.22;5057401;28;45399;-71
2022/01/14 02:00:12;;;;;;;;;37.25;35.25;;;;;4.79;69.80;103146.47;5056547;28;45438;-67
2022/01/14 02:02:38;;;;;;;;;45.25;37.25;;;;;4.77;69.54;103142.94;5056572;28;45263;-65
2022/01/14 02:05:04;;;;;;;;;25.75;20.75;;;;;4.76;69.87;103139.41;5056610;28;45192;-72
2022/01/14 02:07:33;;;;;;;;;40.75;34.25;;;;;4.72;69.92;103130.59;5056988;28;45179;-68
2022/01/14 02:10:00;;;;;;;;;37.75;32.50;;;;;4.78;69.82;103131.53;5056490;28;45320;-72
2022/01/14 02:12:34;;;;;;;;;47.50;40.50;;;;;4.74;69.95;103126.22;5057079;28;46570;-71
2022/01/14 02:15:25;;;;;;;;;44.25;37.00;;;;;4.76;69.45;103123.59;5056997;28;45464;-73
2022/01/14 02:23:05;;;;;;;;;35.50;30.75;;;;;4.77;69.87;103124.47;5055014;28;45445;-73
2022/01/14 02:25:31;;;;;;;;;40.00;35.25;;;;;4.68;70.07;103120.88;5038186;28;45467;-64
2022/01/14 02:28:01;;;;;;;;;31.00;29.75;;;;;4.70;69.17;103124.44;5056603;28;45534;-69
2022/01/14 02:30:29;;;;;;;;;43.25;39.50;;;;;4.68;69.46;103115.59;5056790;28;45334;-69
2022/01/14 02:32:54;;;;;;;;;32.00;25.25;;;;;4.70;69.45;103121.81;5056490;28;46094;-69
2022/01/14 02:35:20;;;;;;;;;39.50;35.00;;;;;4.71;70.18;103114.78;5055942;28;45335;-66
2022/01/14 02:37:45;;;;;;;;;38.75;32.00;;;;;4.70;69.87;103113.00;5055498;28;45514;-70
2022/01/14 02:40:12;;;;;;;;;40.75;32.25;;;;;4.74;69.54;103115.69;5054964;28;45670;-66
2022/01/14 02:42:38;;;;;;;;;39.00;35.25;;;;;4.74;69.83;103104.25;5056187;28;45408;-71
2022/01/14 02:45:07;;;;;;;;;45.50;37.25;;;;;4.72;69.62;103101.59;5037614;28;45339;-73
2022/01/14 02:47:32;;;;;;;;;39.75;36.50;;;;;4.58;70.26;103090.06;5039484;28;45399;-71
2022/01/14 02:49:59;;;;;;;;;42.00;25.00;;;;;4.67;69.56;103100.66;5056911;28;45482;-71
2022/01/14 02:55:20;;;;;;;;;50.25;38.25;;;;;4.66;69.84;103100.66;5055622;28;45451;-68
2022/01/14 02:57:56;;;;;;;;;37.00;33.25;;;;;4.58;69.98;103102.38;5037985;28;45311;-70
2022/01/14 03:00:26;;;;;;;;;39.50;35.25;;;;;4.63;69.38;103100.63;5056540;28;45244;-66
2022/01/14 03:02:52;;;;;;;;;38.50;34.50;;;;;4.60;69.53;103096.22;5055551;28;45423;-72
2022/01/14 03:05:19;;;;;;;;;37.00;33.25;;;;;4.58;70.19;103091.81;5053892;28;45505;-67
2022/01/14 03:07:46;;;;;;;;;52.00;40.00;;;;;4.62;69.93;103086.59;5039197;28;45427;-72
2022/01/14 03:10:14;;;;;;;;;41.50;37.00;;;;;4.62;70.12;103072.53;5049355;28;45373;-70
2022/01/14 03:12:41;;;;;;;;;47.25;38.75;;;;;4.60;70.19;103075.16;5056075;28;45426;-69
2022/01/14 03:15:08;;;;;;;;;37.75;30.75;;;;;4.56;69.87;103070.72;5036262;28;45469;-62
2022/01/14 03:17:34;;;;;;;;;42.50;38.25;;;;;4.56;69.81;103070.72;5055968;28;45364;-71
2022/01/14 03:20:01;;;;;;;;;47.00;38.50;;;;;4.57;70.16;103075.13;5056143;28;45482;-68
2022/01/14 03:22:34;;;;;;;;;46.75;40.50;;;;;4.56;70.00;103068.09;5056180;28;45667;-68
2022/01/14 03:27:45;;;;;;;;;44.50;32.75;;;;;4.43;69.61;103066.22;5056165;28;45307;-64
2022/01/14 03:30:12;;;;;;;;;47.75;35.25;;;;;4.35;70.03;103075.81;5055428;28;45511;-68
2022/01/14 03:32:38;;;;;;;;;49.00;41.00;;;;;4.31;70.76;103067.00;5045131;28;45335;-66
2022/01/14 03:35:03;;;;;;;;;44.50;35.50;;;;;4.33;69.84;103067.00;5025888;28;45267;-69
2022/01/14 03:37:29;;;;;;;;;34.75;30.50;;;;;4.34;70.34;103061.75;5055997;28;45371;-68
2022/01/14 03:39:54;;;;;;;;;46.25;42.25;;;;;4.38;70.17;103060.91;5055923;28;45173;-71
2022/01/14 03:42:20;;;;;;;;;46.75;41.75;;;;;4.37;69.99;103063.53;5055274;28;45965;-68
2022/01/14 03:44:45;;;;;;;;;42.50;35.75;;;;;4.33;69.92;103069.63;5055363;28;45329;-71
2022/01/14 03:47:10;;;;;;;;;48.00;42.00;;;;;4.31;69.84;103071.38;5055899;28;45521;-69
2022/01/14 03:49:36;;;;;;;;;28.50;24.50;;;;;4.29;70.22;103073.09;5059861;28;45341;-70
2022/01/14 03:52:01;;;;;;;;;42.25;37.50;;;;;4.28;70.24;103076.59;5041251;28;46047;-64
2022/01/14 03:54:27;;;;;;;;;41.50;41.50;;;;;4.25;70.57;103076.56;5049676;28;45521;-68
2022/01/14 03:56:52;;;;;;;;;46.75;39.25;;;;;4.23;70.44;103063.38;5049069;28;45295;-73
2022/01/14 03:59:17;;;;;;;;;50.00;40.25;;;;;4.27;69.94;103064.28;5059462;28;45409;-66
2022/01/14 04:01:43;;;;;;;;;51.50;43.00;;;;;4.26;70.77;103063.41;5057072;28;46068;-69
2022/01/14 04:04:08;;;;;;;;;44.25;34.50;;;;;4.25;70.53;103061.66;5040944;28;45409;-65
2022/01/14 04:06:34;;;;;;;;;40.25;36.25;;;;;4.24;70.03;103059.88;5055150;28;45478;-67
2022/01/14 04:08:59;;;;;;;;;42.50;37.75;;;;;4.18;70.54;103053.69;5059197;28;45331;-67
2022/01/14 04:11:25;;;;;;;;;50.75;40.25;;;;;4.23;70.20;103067.78;5052638;28;45426;-70
2022/01/14 04:13:54;;;;;;;;;53.25;41.00;;;;;4.17;71.00;103055.44;5045542;28;45458;-68
2022/01/14 04:16:21;;;;;;;;;48.50;42.75;;;;;4.18;70.68;103070.38;5058424;28;45324;-68
2022/01/14 04:18:51;;;;;;;;;45.75;39.00;;;;;4.15;70.61;103057.16;5058533;28;45462;-66
2022/01/14 04:21:17;;;;;;;;;53.25;44.00;;;;;4.11;70.68;103069.41;5057215;28;45447;-69
2022/01/14 04:23:44;;;;;;;;;51.75;44.00;;;;;4.12;70.88;103065.91;5058512;28;45375;-69
2022/01/14 04:26:10;;;;;;;;;52.25;42.25;;;;;4.14;70.98;103069.44;5056889;28;45393;-72
2022/01/14 04:28:35;;;;;;;;;48.25;42.50;;;;;4.13;70.70;103059.78;5058523;28;45383;-67
2022/01/14 04:31:03;;;;;;;;;62.00;44.75;;;;;4.12;70.47;103052.75;5053982;28;45466;-69
2022/01/14 04:33:30;;;;;;;;;49.75;41.50;;;;;4.11;70.10;103047.47;5040232;28;45427;-71
2022/01/14 04:35:58;;;;;;;;;44.50;37.25;;;;;4.14;71.30;103056.28;5057175;28;45438;-72
2022/01/14 04:38:25;;;;;;;;;50.50;42.50;;;;;4.14;70.81;103053.63;5047029;28;45884;-71
2022/01/14 04:40:51;;;;;;;;;59.25;44.75;;;;;4.07;71.43;103036.03;5052242;28;46215;-70
2022/01/14 04:43:19;;;;;;;;;50.25;43.25;;;;;4.09;71.08;103043.94;5057895;28;45319;-69
2022/01/14 04:48:23;;;;;;;;;54.00;46.25;;;;;4.05;71.21;103032.50;5038663;28;45221;-64
2022/01/14 04:50:53;;;;;;;;;48.75;43.25;;;;;4.03;71.08;103038.59;5055637;28;46122;-68
2022/01/14 04:53:20;;;;;;;;;50.50;45.00;;;;;4.01;71.09;103030.69;5058155;28;45352;-73
2022/01/14 04:55:46;;;;;;;;;52.50;43.25;;;;;4.06;71.23;103033.38;5054995;28;45236;-71
2022/01/14 04:58:12;;;;;;;;;54.75;43.25;;;;;4.07;70.66;103025.50;5053925;28;45602;-70
2022/01/14 05:00:39;;;;;;;;;50.25;42.00;;;;;4.09;71.25;103028.16;5056979;28;45796;-64
2022/01/14 05:03:06;;;;;;;;;47.25;43.50;;;;;4.09;70.71;103017.59;5057036;28;45315;-65
2022/01/14 05:05:34;;;;;;;;;52.50;44.75;;;;;4.04;71.08;103020.22;5057913;28;45489;-72
2022/01/14 05:08:00;;;;;;;;;48.50;40.75;;;;;3.97;71.55;103023.63;5035609;28;45628;-69
2022/01/14 05:12:52;;;;;;;;;48.00;38.00;;;;;3.88;71.37;102997.22;5057540;28;45292;-69
2022/01/14 05:15:18;;;;;;;;;51.50;43.25;;;;;3.98;70.76;103030.66;5043461;28;45377;-66
2022/01/14 05:17:44;;;;;;;;;59.75;43.00;;;;;4.01;70.97;103022.78;5034102;28;45461;-70
2022/01/14 05:20:11;;;;;;;;;50.50;41.00;;;;;4.03;71.01;103015.78;5042856;28;45387;-71
2022/01/14 05:22:36;;;;;;;;;44.50;36.50;;;;;3.96;71.27;103006.06;5056656;28;47016;-66
2022/01/14 05:25:04;;;;;;;;;46.25;39.00;;;;;3.98;71.63;103021.88;5036718;28;45320;-65
2022/01/14 05:27:29;;;;;;;;;37.75;32.75;;;;;3.98;71.72;103014.88;5036548;28;45565;-70
2022/01/14 05:29:55;;;;;;;;;45.50;41.00;;;;;3.97;71.19;103026.28;5035894;28;46040;-67
2022/01/14 05:32:22;;;;;;;;;48.75;38.25;;;;;3.95;71.84;103030.63;5037357;28;45454;-69
2022/01/14 05:34:48;;;;;;;;;46.50;38.50;;;;;3.97;71.30;103023.63;5020025;28;45211;-71
2022/01/14 05:37:14;;;;;;;;;46.75;42.50;;;;;3.95;71.35;103017.47;5055056;28;45232;-73
2022/01/14 05:39:40;;;;;;;;;55.00;48.25;;;;;3.93;71.06;103035.00;5051549;28;46022;-70
2022/01/14 05:42:06;;;;;;;;;49.00;43.25;;;;;3.91;71.56;103036.75;5040345;28;45496;-72
2022/01/14 05:44:32;;;;;;;;;50.25;43.00;;;;;3.88;71.17;103033.19;5051070;28;45598;-64
2022/01/14 05:46:59;;;;;;;;;48.25;41.50;;;;;3.83;71.38;103035.78;5051486;28;45257;-63
2022/01/14 05:49:25;;;;;;;;;59.75;43.25;;;;;3.74;71.88;103027.78;5055638;28;46250;-68
2022/01/14 05:51:51;;;;;;;;;41.00;36.00;;;;;3.76;72.03;103045.34;5054786;28;45319;-72
2022/01/14 05:54:18;;;;;;;;;50.00;40.50;;;;;3.80;72.13;103035.75;5043107;28;45331;-71
2022/01/14 05:56:43;;;;;;;;;54.25;43.00;;;;;3.82;72.01;103029.63;5023051;28;45680;-68
2022/01/14 05:59:10;;;;;;;;;46.50;39.25;;;;;3.83;71.57;103035.78;5037115;28;46602;-70
2022/01/14 06:01:36;;;;;;;;;35.00;35.00;;;;;3.85;71.64;103028.78;5050312;28;45491;-70
2022/01/14 06:04:03;;;;;;;;;52.25;43.00;;;;;3.87;71.51;103041.94;5055528;28;45477;-72
2022/01/14 06:06:29;;;;;;;;;45.50;43.00;;;;;3.89;71.58;103033.19;5055392;28;45533;-71
2022/01/14 06:08:54;;;;;;;;;39.00;32.75;;;;;3.83;71.90;103036.66;5056423;28;46141;-70
2022/01/14 06:11:20;;;;;;;;;45.00;36.00;;;;;3.81;71.55;103026.97;5056064;28;45339;-68
2022/01/14 06:13:46;;;;;;;;;50.25;43.50;;;;;3.85;72.31;103037.53;5056976;28;45413;-70
2022/01/14 06:16:13;;;;;;;;;46.75;41.00;;;;;3.84;71.53;103032.28;5056189;28;45478;-66
2022/01/14 06:18:38;;;;;;;;;47.00;38.00;;;;;3.82;72.01;103024.38;5056756;28;45503;-68
2022/01/14 06:21:04;;;;;;;;;53.50;42.75;;;;;3.82;71.83;103029.63;5039223;28;45324;-71
2022/01/14 06:23:30;;;;;;;;;43.25;39.50;;;;;3.87;71.84;103032.28;5057045;28;45288;-69
2022/01/14 06:25:56;;;;;;;;;45.50;44.50;;;;;3.89;71.63;103034.94;5057148;28;45400;-70
2022/01/14 06:28:22;;;;;;;;;40.75;32.00;;;;;3.91;72.13;103036.75;5038691;28;46129;-69
2022/01/14 06:30:48;;;;;;;;;48.25;41.75;;;;;3.93;71.84;103036.75;5057189;28;45474;-70
2022/01/14 06:33:13;;;;;;;;;42.00;38.25;;;;;3.96;71.54;103045.56;5057101;28;45257;-70
2022/01/14 06:35:39;;;;;;;;;49.25;43.25;;;;;3.98;71.85;103041.19;5057012;28;45403;-63
2022/01/14 06:38:04;;;;;;;;;46.50;40.50;;;;;3.97;71.57;103036.81;5056750;28;46516;-65
2022/01/14 06:40:31;;;;;;;;;37.00;34.75;;;;;4.02;71.65;103037.72;5056416;28;45450;-67
2022/01/14 06:42:58;;;;;;;;;52.25;43.75;;;;;4.05;71.34;103037.78;5056697;28;45190;-66
2022/01/14 06:45:23;;;;;;;;;43.50;40.25;;;;;4.06;71.94;103029.00;5056622;28;45663;-67
2022/01/14 06:47:50;;;;;;;;;44.25;39.75;;;;;4.06;71.56;103020.22;5056409;28;45385;-66
2022/01/14 06:50:16;;;;;;;;;52.00;42.75;;;;;4.11;71.36;103026.41;5055327;28;45458;-69
2022/01/14 06:52:41;;;;;;;;;51.75;43.75;;;;;4.13;71.08;103020.28;5056649;28;45449;-68
2022/01/14 06:55:10;;;;;;;;;49.75;42.25;;;;;4.22;71.56;103021.25;5056938;28;45398;-62
2022/01/14 06:57:36;;;;;;;;;46.75;41.50;;;;;4.25;71.74;103034.44;5056034;28;46211;-58
2022/01/14 07:00:06;;;;;;;;;42.75;40.50;;;;;4.20;71.33;103010.69;5055837;28;45427;-59
2022/01/14 07:02:32;;;;;;;;;48.50;35.75;;;;;4.24;71.44;103011.59;5055414;28;45528;-62
2022/01/14 07:04:58;;;;;;;;;38.75;37.75;;;;;4.23;71.04;103009.84;5056283;28;45665;-64
2022/01/14 07:07:23;;;;;;;;;36.75;32.25;;;;;4.21;71.69;103007.19;5055569;28;46028;-61
2022/01/14 07:09:57;;;;;;;;;49.50;40.50;;;;;4.19;71.08;102997.50;5054781;28;45330;-60
2022/01/14 07:12:37;;;;;;;;;47.50;41.75;;;;;4.35;71.19;103023.13;5038663;28;45466;-60
2022/01/14 07:15:08;;;;;;;;;42.00;40.50;;;;;4.32;71.39;103005.53;5053719;28;45352;-58
2022/01/14 07:17:34;;;;;;;;;51.50;43.00;;;;;4.39;70.96;103012.59;5052851;28;45528;-60
2022/01/14 07:20:06;;;;;;;;;47.25;40.25;;;;;4.39;70.69;103009.09;5055529;28;45537;-63
2022/01/14 07:22:31;;;;;;;;;45.50;43.00;;;;;4.39;71.07;103011.72;5054935;28;45659;-66
2022/01/14 07:24:58;;;;;;;;;52.75;39.25;;;;;4.37;71.34;102997.66;5055549;28;45457;-65
2022/01/14 07:27:23;;;;;;;;;49.50;39.25;;;;;4.39;71.33;103009.09;5055296;28;45983;-66
2022/01/14 07:29:49;;;;;;;;;49.50;43.00;;;;;4.36;71.34;102988.00;5054985;28;45376;-64
2022/01/14 07:32:14;;;;;;;;;45.00;33.25;;;;;4.41;70.68;102999.44;5055379;28;45440;-70
2022/01/14 07:34:40;;;;;;;;;49.50;44.25;;;;;4.46;70.22;103003.00;5056437;28;45462;-67
2022/01/14 07:37:06;;;;;;;;;38.00;32.25;;;;;4.47;71.59;103017.94;5055534;28;45388;-67
2022/01/14 07:39:31;;;;;;;;;39.75;37.50;;;;;4.39;71.18;103012.59;5055447;28;45484;-63
2022/01/14 07:41:57;;;;;;;;;43.00;36.50;;;;;4.42;71.06;103004.72;5055461;28;45876;-67
2022/01/14 07:44:22;;;;;;;;;41.25;31.75;;;;;4.52;70.84;103012.69;5037538;28;45550;-61
2022/01/14 07:46:48;;;;;;;;;35.75;34.25;;;;;4.52;70.93;103000.41;5054634;28;45470;-67
2022/01/14 07:49:15;;;;;;;;;40.50;36.75;;;;;4.54;71.24;103016.22;5054094;28;45362;-66
2022/01/14 07:51:40;;;;;;;;;43.50;38.25;;;;;4.56;71.31;103010.13;5056023;28;45320;-65
2022/01/14 07:54:07;;;;;;;;;44.25;39.00;;;;;4.55;70.84;103017.97;5055455;28;45249;-65
2022/01/14 07:56:45;;;;;;;;;41.75;39.25;;;;;4.52;70.78;103017.97;5055387;28;46416;-65
2022/01/14 07:59:14;;;;;;;;;51.75;42.00;;;;;4.52;71.03;103024.13;5037183;28;45420;-61
2022/01/14 08:01:40;;;;;;;;;38.25;34.25;;;;;4.57;70.61;103025.06;5055769;28;45289;-66
2022/01/14 08:04:06;;;;;;;;;44.50;36.75;;;;;4.54;70.18;103032.91;5055952;28;45181;-65
2022/01/14 08:06:37;;;;;;;;;49.50;43.50;;;;;4.53;70.51;103017.97;5055102;28;46551;-60
2022/01/14 08:09:03;;;;;;;;;45.75;38.00;;;;;4.56;70.45;103023.28;5055182;28;45233;-61
2022/01/14 08:11:28;;;;;;;;;43.50;39.75;;;;;4.61;70.28;103025.94;5055048;28;45944;-58
2022/01/14 08:13:54;;;;;;;;;49.50;45.00;;;;;4.59;70.27;103025.94;5055283;28;45355;-59
2022/01/14 08:16:19;;;;;;;;;59.00;43.75;;;;;4.55;70.34;103026.78;5055349;28;46082;-60
2022/01/14 08:18:45;;;;;;;;;46.25;43.25;;;;;4.49;70.06;103024.09;5055420;28;45350;-68
2022/01/14 08:21:11;;;;;;;;;59.25;46.00;;;;;4.56;70.69;103023.28;5037024;28;45310;-70
2022/01/14 08:23:38;;;;;;;;;50.75;43.75;;;;;4.70;70.36;103039.22;5055416;28;45359;-65
2022/01/14 08:26:03;;;;;;;;;46.50;42.75;;;;;4.72;70.42;103038.34;5054941;28;47444;-66
2022/01/14 08:28:29;;;;;;;;;49.25;45.50;;;;;4.69;70.44;103042.72;5054840;28;45426;-68
2022/01/14 08:30:55;;;;;;;;;43.25;41.75;;;;;4.65;70.41;103033.88;5055109;28;45534;-62
2022/01/14 08:33:20;;;;;;;;;49.25;43.25;;;;;4.66;69.81;103032.13;5055211;28;45488;-62
2022/01/14 08:35:46;;;;;;;;;62.00;50.00;;;;;4.65;70.28;103035.63;5040364;28;45562;-57
2022/01/14 08:38:12;;;;;;;;;42.25;41.75;;;;;4.66;69.74;103030.38;5058618;28;45248;-64
2022/01/14 08:40:38;;;;;;;;;52.25;43.00;;;;;4.65;70.16;103030.38;5058507;28;45342;-65
2022/01/14 08:43:04;;;;;;;;;51.50;43.00;;;;;4.71;70.64;103044.50;5058737;28;45244;-63
2022/01/14 08:45:30;;;;;;;;;59.75;49.50;;;;;4.71;70.01;103036.59;5058358;28;46112;-63
2022/01/14 08:47:56;;;;;;;;;58.00;47.75;;;;;4.73;70.32;103029.56;5040125;28;45456;-69
2022/01/14 08:50:24;;;;;;;;;56.50;44.00;;;;;4.81;70.22;103041.91;5058610;28;45660;-64
2022/01/14 08:52:53;;;;;;;;;52.75;45.25;;;;;4.85;70.47;103048.97;5058377;28;45493;-66
2022/01/14 08:55:19;;;;;;;;;60.00;47.00;;;;;4.83;70.11;103033.16;5057897;28;46027;-65
2022/01/14 08:57:45;;;;;;;;;52.50;45.00;;;;;4.94;69.61;103039.34;5040530;28;45312;-70
2022/01/14 09:00:16;;;;;;;;;67.00;50.25;;;;;4.98;69.42;103048.19;5040998;28;45536;-66
2022/01/14 09:02:41;;;;;;;;;67.50;51.00;;;;;4.99;69.08;103040.28;5059332;28;45380;-62
2022/01/14 09:05:08;;;;;;;;;57.50;46.50;;;;;5.08;69.96;103026.28;5058067;28;45334;-62
2022/01/14 09:07:34;;;;;;;;;62.00;47.00;;;;;5.13;69.41;103036.84;5039938;28;45367;-62
2022/01/14 09:09:59;;;;;;;;;65.50;46.25;;;;;5.17;69.30;103036.84;5040475;28;45231;-64
2022/01/14 09:12:25;;;;;;;;;49.50;42.25;;;;;5.19;68.23;103029.81;5058609;28;45640;-67
2022/01/14 09:14:50;;;;;;;;;46.50;42.25;;;;;5.23;68.22;103028.97;5058248;28;45356;-61
2022/01/14 09:17:19;;;;;;;;;51.00;44.50;;;;;5.21;68.46;103021.94;5040446;28;45459;-68
2022/01/14 09:19:45;;;;;;;;;50.00;38.25;;;;;5.26;68.45;103029.00;5040320;28;45473;-63
2022/01/14 09:22:15;;;;;;;;;52.50;44.25;;;;;5.28;68.00;103027.25;5058137;28;45570;-69
2022/01/14 09:24:41;;;;;;;;;50.50;35.25;;;;;5.30;67.82;103022.84;5057679;28;45243;-66
2022/01/14 09:27:07;;;;;;;;;51.75;41.00;;;;;5.30;68.06;103022.84;5039277;28;45359;-66
2022/01/14 09:29:32;;;;;;;;;40.25;30.75;;;;;5.36;67.79;103027.28;5057677;28;45521;-68
2022/01/14 09:31:58;;;;;;;;;48.50;43.00;;;;;5.40;68.17;103022.91;5039475;28;45493;-69
2022/01/14 09:34:23;;;;;;;;;43.75;39.25;;;;;5.42;68.23;103018.50;5057080;28;45446;-66
2022/01/14 09:36:49;;;;;;;;;46.50;43.25;;;;;5.39;67.51;103024.66;5057290;28;45459;-67
2022/01/14 09:39:15;;;;;;;;;54.00;44.25;;;;;5.38;67.88;103022.00;5057744;28;45474;-63
2022/01/14 09:41:40;;;;;;;;;54.25;45.00;;;;;5.39;67.71;103023.78;5056757;28;45264;-61
2022/01/14 09:44:06;;;;;;;;;52.00;44.00;;;;;5.40;67.68;103028.19;5057069;28;46301;-64
2022/01/14 09:46:31;;;;;;;;;54.25;44.75;;;;;5.36;67.42;103027.28;5056882;28;45419;-68
2022/01/14 09:48:57;;;;;;;;;55.00;42.75;;;;;5.41;66.57;103024.66;5057084;28;45291;-60
2022/01/14 09:51:23;;;;;;;;;55.50;44.50;;;;;5.45;66.62;103021.16;5057542;28;45502;-59
2022/01/14 09:53:49;;;;;;;;;54.50;45.00;;;;;5.48;66.25;103018.53;5057591;28;45413;-69
2022/01/14 09:56:17;;;;;;;;;56.25;38.50;;;;;5.51;66.55;103023.81;5039160;28;45454;-66
2022/01/14 09:58:47;;;;;;;;;65.50;46.50;;;;;5.53;66.18;103029.97;5057296;28;45399;-65
2022/01/14 10:01:15;;;;;;;;;61.00;48.75;;;;;5.52;65.93;103012.38;5057387;28;45441;-61
2022/01/14 10:03:55;;;;;;;;;66.50;50.00;;;;;5.59;66.11;103037.91;5056638;28;45354;-65
2022/01/14 10:06:55;;;;;;;;;49.00;38.50;;;;;5.60;66.77;103034.44;5057172;28;45411;-63
2022/01/14 10:09:42;;;;;;;;;65.75;50.50;;;;;5.67;65.62;103038.84;5005447;28;45431;-65
2022/01/14 10:12:08;;;;;;;;;55.75;49.25;;;;;5.72;66.40;103039.72;5037072;28;45327;-63
2022/01/14 10:14:38;;;;;;;;;67.25;51.25;;;;;5.78;65.45;103041.50;5035435;28;48049;-68
2022/01/14 10:17:06;;;;;;;;;67.25;50.25;;;;;5.81;65.92;103037.13;5037118;28;45494;-68
2022/01/14 10:19:43;;;;;;;;;65.75;51.25;;;;;5.86;65.75;103035.38;5037056;28;45540;-62
2022/01/14 10:22:18;;;;;;;;;71.25;56.00;;;;;5.97;66.04;103029.25;5037017;28;45337;-66
2022/01/14 10:24:57;;;;;;;;;66.00;53.00;;;;;6.02;65.44;103035.44;5036716;28;46479;-65
2022/01/14 10:27:49;;;;;;;;;71.75;54.75;;;;;6.12;64.94;103031.91;5036546;28;45321;-70
2022/01/14 10:30:16;;;;;;;;;63.00;50.75;;;;;6.19;64.87;103033.69;5018865;28;45361;-67
2022/01/14 10:32:44;;;;;;;;;64.50;51.75;;;;;6.27;65.46;103034.59;5018543;28;45561;-70
2022/01/14 10:35:17;;;;;;;;;57.00;47.75;;;;;6.37;64.31;103024.88;5017979;28;47990;-67
2022/01/14 10:37:42;;;;;;;;;67.00;50.75;;;;;6.41;63.77;103016.97;5036588;28;45305;-67
2022/01/14 10:40:16;;;;;;;;;70.25;55.75;;;;;6.50;64.57;103022.25;5052249;28;45257;-68
2022/01/14 10:42:42;;;;;;;;;68.75;53.00;;;;;6.61;64.34;103026.66;5056642;28;45541;-65
2022/01/14 10:45:15;;;;;;;;;66.75;51.50;;;;;6.68;63.38;103028.41;5056316;28;45272;-66
2022/01/14 10:47:49;;;;;;;;;61.25;48.25;;;;;6.76;63.69;103022.22;5055484;28;45345;-70
2022/01/14 10:50:15;;;;;;;;;37.75;32.25;;;;;6.80;62.96;103009.91;5056573;28;45410;-64
2022/01/14 10:52:40;;;;;;;;;66.50;57.00;;;;;6.84;63.01;102998.41;5056555;28;45404;-65
2022/01/14 10:55:06;;;;;;;;;66.25;52.75;;;;;6.98;62.81;103001.03;5054864;28;45414;-64
2022/01/14 10:57:32;;;;;;;;;70.75;54.00;;;;;7.09;63.02;102989.53;5053678;28;45366;-71
2022/01/14 11:00:15;;;;;;;;;68.25;51.00;;;;;7.18;61.51;102977.16;5056139;28;45334;-63
2022/01/14 11:02:45;;;;;;;;;63.50;50.00;;;;;7.29;61.86;102975.31;5056174;28;45335;-65
2022/01/14 11:05:13;;;;;;;;;62.25;51.25;;;;;7.45;61.85;102979.69;5056321;28;45359;-68
2022/01/14 11:07:41;;;;;;;;;68.00;55.75;;;;;7.55;61.19;102981.41;5056097;28;45266;-67
2022/01/14 11:10:26;;;;;;;;;64.50;51.75;;;;;7.68;60.95;102985.75;5038163;28;45437;-70
2022/01/14 11:12:54;;;;;;;;;64.25;51.00;;;;;7.78;59.88;102983.88;5056472;28;45277;-71
2022/01/14 11:15:21;;;;;;;;;65.25;48.25;;;;;7.79;58.97;102977.69;5055910;28;45324;-65
2022/01/14 11:17:51;;;;;;;;;66.25;53.25;;;;;7.89;59.93;102974.09;5055613;28;45282;-67
2022/01/14 11:20:29;;;;;;;;;62.50;47.50;;;;;7.96;58.76;102978.50;5055741;28;45362;-67
2022/01/14 11:26:01;;;;;;;;;59.50;47.00;;;;;8.04;57.83;102966.94;5040548;28;45397;-68
2022/01/14 11:28:35;;;;;;;;;54.75;47.25;;;;;8.11;57.84;102964.25;5056038;28;45316;-69
2022/01/14 11:31:21;;;;;;;;;59.50;44.50;;;;;8.22;56.56;102958.84;5055449;28;45224;-70
2022/01/14 11:33:46;;;;;;;;;53.00;45.75;;;;;8.24;56.64;102960.59;5055536;28;45549;-68
2022/01/14 11:36:12;;;;;;;;;56.25;44.50;;;;;8.25;56.31;102953.50;5055768;28;45387;-71
2022/01/14 11:38:44;;;;;;;;;54.25;44.75;;;;;8.27;56.54;102947.31;5055677;28;45529;-72
2022/01/14 11:41:16;;;;;;;;;48.25;42.00;;;;;8.33;55.28;102948.13;5055884;28;45445;-68
2022/01/14 11:43:47;;;;;;;;;48.50;42.00;;;;;8.34;55.14;102945.53;5051591;28;45587;-71
2022/01/14 11:46:16;;;;;;;;;55.75;44.25;;;;;8.38;55.42;102946.38;5035629;28;45919;-65
2022/01/14 11:48:49;;;;;;;;;46.25;43.25;;;;;8.40;54.95;102944.56;5035395;28;45475;-65